Time;durP1;ratioP1;P1;durP2;ratioP2;P2;SDS_P1;SDS_P2;PMS_P1;PMS_P2;Temp;Humidity;BMP_temperature;BMP_pressure;BME280_temperature;BME280_humidity;BME280_pressure;Samples;Min_cycle;Max_cycle;Signal;HPM_P1;HPM_P2
2022/05/10 00:00:53;;;;;;;10.50;9.00;;;;;;;;;;5053575;28;20394;-77
2022/05/10 00:03:20;;;;;;;11.50;10.30;;;;;;;;;;5053295;28;20386;-77
2022/05/10 00:05:46;;;;;;;10.90;9.77;;;;;;;;;;5053708;28;20408;-76
2022/05/10 00:08:14;;;;;;;12.13;9.70;;;;;;;;;;5053601;28;20964;-76
2022/05/10 00:10:40;;;;;;;10.10;9.10;;;;;;;;;;5053651;28;20753;-76
2022/05/10 00:13:06;;;;;;;9.67;8.60;;;;;;;;;;5053107;28;20464;-75
2022/05/10 00:15:33;;;;;;;10.10;9.10;;;;;;;;;;5053401;28;20443;-76
2022/05/10 00:17:59;;;;;;;10.70;9.60;;;;;;;;;;5035877;28;20778;-76
2022/05/10 00:20:26;;;;;;;10.17;8.97;;;;;;;;;;5053242;28;20408;-76
2022/05/10 00:22:52;;;;;;;10.37;9.47;;;;;;;;;;5053034;28;20416;-77
2022/05/10 00:25:21;;;;;;;11.67;8.47;;;;;;;;;;5053068;28;20421;-75
2022/05/10 00:27:47;;;;;;;10.23;9.23;;;;;;;;;;5053218;28;20428;-76
2022/05/10 00:30:13;;;;;;;12.53;9.40;;;;;;;;;;5053237;28;20399;-77
2022/05/10 00:32:40;;;;;;;10.43;9.43;;;;;;;;;;5052008;28;20896;-77
2022/05/10 00:35:10;;;;;;;10.67;9.33;;;;;;;;;;5052918;28;20913;-77
2022/05/10 00:37:36;;;;;;;10.40;8.80;;;;;;;;;;5053122;28;20412;-76
2022/05/10 00:40:02;;;;;;;10.13;8.97;;;;;;;;;;5052945;28;20460;-75
2022/05/10 00:42:33;;;;;;;12.63;9.70;;;;;;;;;;5035216;28;20468;-76
2022/05/10 00:45:03;;;;;;;12.13;9.50;;;;;;;;;;5052622;28;20498;-76
2022/05/10 00:47:29;;;;;;;10.93;9.73;;;;;;;;;;5052939;28;20764;-75
2022/05/10 00:50:14;;;;;;;11.47;10.37;;;;;;;;;;5052970;28;20404;-77
2022/05/10 00:52:54;;;;;;;9.83;9.00;;;;;;;;;;5052749;28;20864;-77
2022/05/10 00:55:24;;;;;;;9.77;8.77;;;;;;;;;;5052796;28;20406;-75
2022/05/10 00:57:58;;;;;;;9.50;8.50;;;;;;;;;;5052957;28;20708;-76
2022/05/10 01:00:25;;;;;;;9.70;8.53;;;;;;;;;;5054647;28;20390;-75
2022/05/10 01:02:54;;;;;;;11.57;10.07;;;;;;;;;;5056916;28;20387;-75
2022/05/10 01:05:27;;;;;;;10.20;8.77;;;;;;;;;;5039110;28;20522;-75
2022/05/10 01:07:58;;;;;;;10.67;9.53;;;;;;;;;;5057201;28;20944;-75
2022/05/10 01:10:28;;;;;;;11.00;10.00;;;;;;;;;;5056773;28;20397;-77
2022/05/10 01:13:12;;;;;;;9.40;8.60;;;;;;;;;;5056487;28;20772;-77
2022/05/10 01:15:39;;;;;;;9.83;8.90;;;;;;;;;;5055549;28;20780;-75
2022/05/10 01:18:05;;;;;;;10.23;9.23;;;;;;;;;;5056874;28;20379;-76
2022/05/10 01:20:35;;;;;;;11.73;9.17;;;;;;;;;;5056947;28;20767;-75
2022/05/10 01:23:20;;;;;;;9.53;8.63;;;;;;;;;;5056250;28;20379;-77
2022/05/10 01:25:59;;;;;;;9.70;8.80;;;;;;;;;;5056563;28;20817;-76
2022/05/10 01:28:31;;;;;;;10.90;9.90;;;;;;;;;;5056503;28;20383;-76
2022/05/10 01:30:59;;;;;;;10.53;9.57;;;;;;;;;;5055259;28;20414;-77
2022/05/10 01:33:31;;;;;;;11.67;10.47;;;;;;;;;;5056360;28;20500;-75
2022/05/10 01:36:02;;;;;;;11.20;10.10;;;;;;;;;;5056332;28;20412;-74
2022/05/10 01:38:31;;;;;;;10.07;9.17;;;;;;;;;;5056240;28;20500;-75
2022/05/10 01:41:09;;;;;;;14.33;10.07;;;;;;;;;;5056216;28;20470;-76
2022/05/10 01:43:38;;;;;;;13.03;11.10;;;;;;;;;;5038123;28;20904;-76
2022/05/10 01:46:10;;;;;;;10.90;9.73;;;;;;;;;;5038482;28;20416;-76
2022/05/10 01:48:37;;;;;;;9.87;9.00;;;;;;;;;;5056177;28;20944;-77
2022/05/10 01:51:07;;;;;;;10.07;9.00;;;;;;;;;;5055987;28;20412;-76
2022/05/10 01:53:35;;;;;;;8.70;8.00;;;;;;;;;;5055859;28;20423;-76
2022/05/10 01:56:01;;;;;;;10.23;8.40;;;;;;;;;;5056093;28;20790;-76
2022/05/10 01:58:29;;;;;;;10.80;9.70;;;;;;;;;;5054500;28;20514;-77
2022/05/10 02:00:59;;;;;;;12.23;9.50;;;;;;;;;;5055890;28;20462;-75
2022/05/10 02:03:25;;;;;;;11.60;10.50;;;;;;;;;;5055472;28;20467;-77
2022/05/10 02:05:51;;;;;;;10.30;9.40;;;;;;;;;;5055943;28;20419;-75
2022/05/10 02:08:37;;;;;;;10.77;9.77;;;;;;;;;;5055882;28;20412;-75
2022/05/10 02:11:10;;;;;;;10.00;8.93;;;;;;;;;;5041750;28;20489;-75
2022/05/10 02:13:39;;;;;;;9.80;8.90;;;;;;;;;;5055441;28;20455;-76
2022/05/10 02:16:25;;;;;;;11.70;9.20;;;;;;;;;;5055777;28;20828;-75
2022/05/10 02:18:51;;;;;;;10.30;9.40;;;;;;;;;;5055592;28;20451;-76
2022/05/10 02:21:20;;;;;;;12.10;9.07;;;;;;;;;;5055612;28;20405;-75
2022/05/10 02:23:50;;;;;;;16.90;10.00;;;;;;;;;;5055311;28;20790;-76
2022/05/10 02:26:19;;;;;;;11.20;9.87;;;;;;;;;;5055466;28;20411;-75
2022/05/10 02:28:48;;;;;;;11.17;10.17;;;;;;;;;;5055396;28;20478;-76
2022/05/10 02:31:20;;;;;;;12.83;10.10;;;;;;;;;;5055267;28;20391;-75
2022/05/10 02:33:47;;;;;;;12.97;10.20;;;;;;;;;;5055036;28;20496;-76
2022/05/10 02:36:13;;;;;;;10.80;9.80;;;;;;;;;;5037600;28;20909;-76
2022/05/10 02:38:40;;;;;;;12.10;10.33;;;;;;;;;;5055435;28;20464;-76
2022/05/10 02:41:10;;;;;;;12.83;10.00;;;;;;;;;;5055267;28;20407;-76
2022/05/10 02:43:40;;;;;;;11.43;10.33;;;;;;;;;;5054730;28;20910;-77
2022/05/10 02:46:06;;;;;;;9.20;8.30;;;;;;;;;;5055283;28;20387;-76
2022/05/10 02:48:36;;;;;;;10.13;9.10;;;;;;;;;;5055105;28;20433;-77
2022/05/10 02:51:03;;;;;;;11.53;9.10;;;;;;;;;;5054924;28;20474;-77
2022/05/10 02:53:29;;;;;;;11.33;9.23;;;;;;;;;;5054423;28;20915;-76
2022/05/10 02:56:01;;;;;;;13.00;9.67;;;;;;;;;;5054845;28;20474;-76
2022/05/10 02:58:30;;;;;;;12.23;9.40;;;;;;;;;;5054762;28;20423;-76
2022/05/10 03:01:03;;;;;;;11.60;10.30;;;;;;;;;;5054824;28;20397;-75
2022/05/10 03:03:29;;;;;;;9.97;9.10;;;;;;;;;;5054173;28;20404;-77
2022/05/10 03:05:55;;;;;;;10.53;9.50;;;;;;;;;;5054846;28;20717;-77
2022/05/10 03:08:22;;;;;;;11.17;10.17;;;;;;;;;;5054938;28;20729;-75
2022/05/10 03:10:48;;;;;;;12.30;10.97;;;;;;;;;;5054864;28;20387;-75
2022/05/10 03:13:14;;;;;;;9.60;8.70;;;;;;;;;;5054096;28;20462;-76
2022/05/10 03:15:40;;;;;;;11.07;9.90;;;;;;;;;;5053644;28;20456;-76
2022/05/10 03:18:06;;;;;;;12.23;10.10;;;;;;;;;;5053290;28;20788;-74
2022/05/10 03:20:32;;;;;;;11.40;10.20;;;;;;;;;;5054542;28;20413;-75
2022/05/10 03:22:59;;;;;;;10.97;9.13;;;;;;;;;;5035307;28;20391;-76
2022/05/10 03:25:25;;;;;;;11.67;10.47;;;;;;;;;;5053227;28;20407;-75
2022/05/10 03:27:51;;;;;;;13.30;12.00;;;;;;;;;;5054290;28;20409;-75
2022/05/10 03:30:18;;;;;;;10.60;9.50;;;;;;;;;;5054468;28;20444;-76
2022/05/10 03:32:44;;;;;;;9.63;8.73;;;;;;;;;;5054351;28;20408;-76
2022/05/10 03:35:11;;;;;;;12.17;9.53;;;;;;;;;;5053892;28;20426;-76
2022/05/10 03:37:37;;;;;;;12.80;9.83;;;;;;;;;;5054132;28;20401;-76
2022/05/10 03:40:03;;;;;;;11.87;10.60;;;;;;;;;;5053947;28;20526;-75
2022/05/10 03:42:29;;;;;;;10.60;9.60;;;;;;;;;;5054154;28;20411;-75
2022/05/10 03:44:55;;;;;;;9.87;8.93;;;;;;;;;;5053773;28;20429;-75
2022/05/10 03:47:23;;;;;;;12.30;10.30;;;;;;;;;;5054349;28;20768;-75
2022/05/10 03:49:49;;;;;;;12.57;10.47;;;;;;;;;;5054203;28;20391;-76
2022/05/10 03:52:16;;;;;;;11.93;9.77;;;;;;;;;;5055288;28;21068;-76
2022/05/10 03:54:42;;;;;;;11.93;9.70;;;;;;;;;;5035823;28;20443;-78
2022/05/10 03:57:09;;;;;;;11.37;10.33;;;;;;;;;;5053862;28;20471;-75
2022/05/10 03:59:41;;;;;;;11.57;9.30;;;;;;;;;;5053630;28;20433;-77
2022/05/10 04:02:07;;;;;;;14.07;10.40;;;;;;;;;;5053569;28;20427;-77
2022/05/10 04:04:33;;;;;;;10.53;9.57;;;;;;;;;;5053126;28;20419;-77
2022/05/10 04:06:59;;;;;;;10.40;9.50;;;;;;;;;;5053760;28;20391;-77
2022/05/10 04:09:25;;;;;;;10.20;9.20;;;;;;;;;;5053607;28;20398;-77
2022/05/10 04:11:51;;;;;;;12.23;10.03;;;;;;;;;;5053421;28;21026;-78
2022/05/10 04:14:17;;;;;;;12.67;10.70;;;;;;;;;;5052907;28;20436;-76
2022/05/10 04:16:43;;;;;;;10.97;9.90;;;;;;;;;;5053631;28;20418;-76
2022/05/10 04:19:09;;;;;;;10.83;9.83;;;;;;;;;;5053557;28;20435;-76
2022/05/10 04:21:35;;;;;;;12.83;9.47;;;;;;;;;;5053711;28;20731;-77
2022/05/10 04:24:01;;;;;;;13.00;9.83;;;;;;;;;;5052840;28;20756;-77
2022/05/10 04:26:27;;;;;;;11.90;10.70;;;;;;;;;;5053500;28;20376;-75
2022/05/10 04:28:54;;;;;;;10.63;9.73;;;;;;;;;;5053257;28;20433;-77
2022/05/10 04:31:20;;;;;;;9.87;8.97;;;;;;;;;;5053260;28;20387;-76
2022/05/10 04:33:46;;;;;;;10.10;9.10;;;;;;;;;;5052761;28;20425;-75
2022/05/10 04:36:12;;;;;;;15.00;8.67;;;;;;;;;;5052874;28;20892;-77
2022/05/10 04:38:39;;;;;;;10.57;9.47;;;;;;;;;;5053170;28;20427;-76
2022/05/10 04:43:50;;;;;;;10.13;9.23;;;;;;;;;;5052816;28;20424;-76
2022/05/10 04:46:16;;;;;;;11.03;8.87;;;;;;;;;;5052898;28;20444;-75
2022/05/10 04:48:42;;;;;;;9.30;8.43;;;;;;;;;;5052778;28;20412;-76
2022/05/10 04:51:08;;;;;;;10.00;9.07;;;;;;;;;;5052973;28;20412;-76
2022/05/10 04:53:34;;;;;;;9.57;8.60;;;;;;;;;;5034710;28;20453;-74
2022/05/10 04:56:00;;;;;;;9.77;8.77;;;;;;;;;;5052759;28;20962;-76
2022/05/10 04:58:26;;;;;;;9.53;8.40;;;;;;;;;;5052549;28;20480;-75
2022/05/10 05:00:55;;;;;;;9.23;8.50;;;;;;;;;;5052750;28;20393;-76
2022/05/10 05:03:21;;;;;;;9.40;8.50;;;;;;;;;;5052278;28;20383;-75
2022/05/10 05:05:47;;;;;;;9.50;8.60;;;;;;;;;;5052845;28;20750;-76
2022/05/10 05:08:13;;;;;;;13.30;9.17;;;;;;;;;;5052712;28;20755;-75
2022/05/10 05:10:39;;;;;;;9.30;8.40;;;;;;;;;;5052493;28;20470;-76
2022/05/10 05:13:05;;;;;;;11.30;8.70;;;;;;;;;;5052421;28;20411;-75
2022/05/10 05:15:31;;;;;;;11.60;9.13;;;;;;;;;;5052546;28;20465;-75
2022/05/10 05:17:57;;;;;;;10.20;8.50;;;;;;;;;;5052828;28;20396;-74
2022/05/10 05:20:23;;;;;;;10.57;8.87;;;;;;;;;;5052399;28;20467;-76
2022/05/10 05:22:49;;;;;;;10.67;8.70;;;;;;;;;;5052301;28;20413;-75
2022/05/10 05:25:15;;;;;;;9.57;8.73;;;;;;;;;;5052122;28;20407;-76
2022/05/10 05:27:41;;;;;;;9.90;8.97;;;;;;;;;;5052468;28;20402;-75
2022/05/10 05:30:08;;;;;;;16.13;8.40;;;;;;;;;;5052383;28;20428;-76
2022/05/10 05:32:35;;;;;;;11.40;7.97;;;;;;;;;;5034903;28;20554;-75
2022/05/10 05:35:01;;;;;;;9.00;7.90;;;;;;;;;;5052100;28;20433;-75
2022/05/10 05:37:33;;;;;;;9.10;8.20;;;;;;;;;;5052672;28;20416;-76
2022/05/10 05:39:59;;;;;;;10.07;7.73;;;;;;;;;;5052462;28;20445;-75
2022/05/10 05:42:25;;;;;;;8.97;8.07;;;;;;;;;;5052447;28;20848;-75
2022/05/10 05:44:51;;;;;;;9.03;7.40;;;;;;;;;;5051980;28;20433;-76
2022/05/10 05:47:17;;;;;;;7.97;7.13;;;;;;;;;;5055598;28;20390;-75
2022/05/10 05:49:44;;;;;;;9.57;7.83;;;;;;;;;;5056069;28;20439;-75
2022/05/10 05:52:11;;;;;;;7.63;6.80;;;;;;;;;;5056401;28;20417;-77
2022/05/10 05:54:37;;;;;;;9.03;7.77;;;;;;;;;;5054211;28;20415;-76
2022/05/10 05:57:04;;;;;;;8.20;7.40;;;;;;;;;;5055762;28;20449;-75
2022/05/10 05:59:30;;;;;;;10.17;7.50;;;;;;;;;;5055789;28;20438;-75
2022/05/10 06:01:56;;;;;;;10.00;7.80;;;;;;;;;;5054490;28;20395;-76
2022/05/10 06:04:22;;;;;;;8.13;7.43;;;;;;;;;;5053961;28;20447;-75
2022/05/10 06:06:48;;;;;;;7.40;6.63;;;;;;;;;;5055683;28;20409;-75
2022/05/10 06:09:14;;;;;;;8.87;7.13;;;;;;;;;;5055621;28;20405;-76
2022/05/10 06:11:40;;;;;;;9.70;6.20;;;;;;;;;;5055856;28;20408;-75
2022/05/10 06:14:06;;;;;;;12.00;7.30;;;;;;;;;;5055400;28;20429;-76
2022/05/10 06:16:33;;;;;;;12.93;6.57;;;;;;;;;;5054704;28;20500;-75
2022/05/10 06:18:59;;;;;;;8.63;7.37;;;;;;;;;;5055397;28;20800;-76
2022/05/10 06:21:25;;;;;;;9.37;6.90;;;;;;;;;;5055841;28;20412;-76
2022/05/10 06:23:51;;;;;;;8.57;7.77;;;;;;;;;;5055492;28;20507;-75
2022/05/10 06:26:17;;;;;;;7.67;6.90;;;;;;;;;;5055906;28;20819;-74
2022/05/10 06:28:43;;;;;;;8.80;7.00;;;;;;;;;;5055482;28;20429;-76
2022/05/10 06:31:11;;;;;;;7.27;6.57;;;;;;;;;;5055399;28;20913;-75
2022/05/10 06:33:37;;;;;;;7.33;6.60;;;;;;;;;;5054990;28;20436;-75
2022/05/10 06:36:04;;;;;;;9.43;7.10;;;;;;;;;;5055324;28;20766;-75
2022/05/10 06:38:30;;;;;;;11.27;6.83;;;;;;;;;;5055179;28;20463;-76
2022/05/10 06:40:57;;;;;;;6.77;6.17;;;;;;;;;;5055270;28;20431;-75
2022/05/10 06:43:23;;;;;;;8.10;7.40;;;;;;;;;;5054698;28;20412;-75
2022/05/10 06:45:50;;;;;;;7.77;6.80;;;;;;;;;;5038184;28;20403;-75
2022/05/10 06:48:16;;;;;;;6.07;5.47;;;;;;;;;;5035309;28;20509;-74
2022/05/10 06:50:42;;;;;;;6.97;6.37;;;;;;;;;;5035271;28;20456;-75
2022/05/10 06:53:09;;;;;;;8.30;6.70;;;;;;;;;;5034935;28;20467;-75
2022/05/10 06:55:35;;;;;;;8.13;6.93;;;;;;;;;;5034988;28;20453;-74
2022/05/10 06:58:02;;;;;;;6.97;6.27;;;;;;;;;;5033771;28;20375;-75
2022/05/10 07:00:28;;;;;;;6.73;5.97;;;;;;;;;;5034854;28;20499;-75
2022/05/10 07:02:55;;;;;;;8.00;7.23;;;;;;;;;;5034685;28;20866;-75
2022/05/10 07:05:21;;;;;;;9.40;7.03;;;;;;;;;;5033298;28;20809;-76
2022/05/10 07:07:47;;;;;;;10.80;7.03;;;;;;;;;;5034725;28;20395;-75
2022/05/10 07:10:14;;;;;;;10.27;6.83;;;;;;;;;;5036559;28;20425;-77
2022/05/10 07:12:41;;;;;;;11.27;6.83;;;;;;;;;;5054222;28;20520;-78
2022/05/10 07:15:09;;;;;;;9.77;7.10;;;;;;;;;;5054679;28;20429;-76
2022/05/10 07:17:35;;;;;;;7.90;7.00;;;;;;;;;;5054582;28;20414;-76
2022/05/10 07:20:03;;;;;;;7.37;6.67;;;;;;;;;;5054614;28;20492;-76
2022/05/10 07:22:29;;;;;;;9.60;6.30;;;;;;;;;;5054632;28;20408;-75
2022/05/10 07:24:55;;;;;;;7.23;6.53;;;;;;;;;;5054082;28;20932;-76
2022/05/10 07:27:20;;;;;;;8.87;7.03;;;;;;;;;;5054342;28;20413;-77
2022/05/10 07:29:46;;;;;;;8.87;6.50;;;;;;;;;;5054074;28;20464;-75
2022/05/10 07:32:14;;;;;;;7.97;6.80;;;;;;;;;;5054269;28;20408;-75
2022/05/10 07:34:40;;;;;;;9.73;6.07;;;;;;;;;;5054013;28;20433;-75
2022/05/10 07:37:06;;;;;;;10.10;7.27;;;;;;;;;;5054374;28;20417;-76
2022/05/10 07:39:32;;;;;;;6.90;6.13;;;;;;;;;;5053829;28;20510;-76
2022/05/10 07:42:01;;;;;;;6.97;6.27;;;;;;;;;;5054237;28;20423;-76
2022/05/10 07:44:27;;;;;;;6.63;5.83;;;;;;;;;;5036617;28;20444;-76
2022/05/10 07:46:53;;;;;;;7.50;5.67;;;;;;;;;;5054044;28;20425;-74
2022/05/10 07:49:19;;;;;;;6.43;5.93;;;;;;;;;;5053927;28;20724;-75
2022/05/10 07:51:45;;;;;;;9.23;5.40;;;;;;;;;;5035823;28;20571;-75
2022/05/10 07:54:11;;;;;;;7.63;6.40;;;;;;;;;;5053301;28;20440;-75
2022/05/10 07:56:38;;;;;;;5.83;5.33;;;;;;;;;;5053772;28;20794;-75
2022/05/10 07:59:04;;;;;;;9.60;6.00;;;;;;;;;;5053660;28;20522;-75
2022/05/10 08:01:30;;;;;;;8.10;5.10;;;;;;;;;;5053611;28;20893;-75
2022/05/10 08:03:56;;;;;;;6.70;5.07;;;;;;;;;;5053057;28;20437;-75
2022/05/10 08:06:22;;;;;;;8.07;5.40;;;;;;;;;;5036101;28;20463;-75
2022/05/10 08:08:51;;;;;;;7.30;5.00;;;;;;;;;;5053224;28;20482;-76
2022/05/10 08:11:17;;;;;;;6.83;4.57;;;;;;;;;;5053593;28;20834;-75
2022/05/10 08:13:43;;;;;;;5.87;5.10;;;;;;;;;;5052935;28;20428;-75
2022/05/10 08:16:10;;;;;;;5.90;4.97;;;;;;;;;;5053295;28;20420;-75
2022/05/10 08:18:37;;;;;;;5.37;4.87;;;;;;;;;;5053262;28;20468;-75
2022/05/10 08:21:03;;;;;;;5.67;4.80;;;;;;;;;;5053379;28;20924;-75
2022/05/10 08:23:30;;;;;;;6.40;4.73;;;;;;;;;;5053011;28;20805;-75
2022/05/10 08:25:57;;;;;;;6.37;4.53;;;;;;;;;;5053110;28;20428;-76
2022/05/10 08:28:24;;;;;;;11.53;5.13;;;;;;;;;;5053178;28;20428;-75
2022/05/10 08:30:51;;;;;;;8.43;4.60;;;;;;;;;;5035710;28;20443;-76
2022/05/10 08:33:20;;;;;;;9.90;5.17;;;;;;;;;;5052791;28;20401;-76
2022/05/10 08:35:49;;;;;;;5.27;4.77;;;;;;;;;;5053043;28;20417;-76
2022/05/10 08:38:16;;;;;;;5.20;4.50;;;;;;;;;;5052765;28;20412;-75
2022/05/10 08:40:43;;;;;;;4.47;4.07;;;;;;;;;;5051804;28;20925;-75
2022/05/10 08:43:15;;;;;;;5.60;4.30;;;;;;;;;;5051320;28;20470;-75
2022/05/10 08:45:43;;;;;;;5.57;4.13;;;;;;;;;;5052935;28;20401;-76
2022/05/10 08:48:09;;;;;;;7.00;4.30;;;;;;;;;;5035097;28;20412;-76
2022/05/10 08:50:36;;;;;;;3.80;3.50;;;;;;;;;;5052941;28;20496;-75
2022/05/10 08:53:03;;;;;;;5.23;4.00;;;;;;;;;;5052603;28;20419;-75
2022/05/10 08:55:30;;;;;;;4.53;4.03;;;;;;;;;;5052734;28;20455;-76
2022/05/10 08:58:23;;;;;;;4.03;3.70;;;;;;;;;;5053070;28;20740;-76
2022/05/10 09:00:51;;;;;;;4.00;3.70;;;;;;;;;;5022386;28;20840;-78
2022/05/10 09:03:38;;;;;;;5.53;3.57;;;;;;;;;;5052943;28;20877;-76
2022/05/10 09:06:11;;;;;;;5.43;3.50;;;;;;;;;;5052763;28;20824;-74
2022/05/10 09:08:37;;;;;;;3.77;3.47;;;;;;;;;;5053200;28;20412;-75
2022/05/10 09:11:04;;;;;;;4.60;3.27;;;;;;;;;;5052578;28;20962;-75
2022/05/10 09:13:31;;;;;;;4.97;3.40;;;;;;;;;;5052211;28;20461;-76
2022/05/10 09:15:57;;;;;;;3.73;3.43;;;;;;;;;;5052771;28;20404;-74
2022/05/10 09:18:29;;;;;;;6.53;3.10;;;;;;;;;;5052942;28;20902;-76
2022/05/10 09:21:04;;;;;;;3.70;3.40;;;;;;;;;;5053755;28;20765;-76
2022/05/10 09:23:30;;;;;;;3.80;3.50;;;;;;;;;;5056176;28;20498;-76
2022/05/10 09:25:57;;;;;;;6.20;3.10;;;;;;;;;;5057332;28;20409;-76
2022/05/10 09:28:28;;;;;;;3.87;3.10;;;;;;;;;;5055707;28;20409;-76
2022/05/10 09:36:27;;;;;;;4.77;3.07;;;;;;;;;;5036726;28;20404;-78
2022/05/10 09:38:56;;;;;;;3.20;2.90;;;;;;;;;;5036444;28;20495;-74
2022/05/10 09:41:27;;;;;;;3.50;3.20;;;;;;;;;;5036319;28;20414;-74
2022/05/10 09:43:54;;;;;;;3.73;3.43;;;;;;;;;;5036097;28;20437;-74
2022/05/10 09:46:25;;;;;;;3.37;2.93;;;;;;;;;;5035113;28;20405;-75
2022/05/10 09:48:51;;;;;;;9.10;3.57;;;;;;;;;;5036033;28;20418;-74
2022/05/10 09:51:24;;;;;;;6.10;3.43;;;;;;;;;;5036264;28;20772;-74
2022/05/10 09:53:50;;;;;;;6.83;3.20;;;;;;;;;;5035492;28;20437;-77
2022/05/10 09:56:36;;;;;;;7.17;3.03;;;;;;;;;;5036104;28;20415;-77
2022/05/10 09:59:25;;;;;;;6.63;3.27;;;;;;;;;;5035883;28;20951;-76
2022/05/10 10:01:55;;;;;;;3.10;2.80;;;;;;;;;;5027981;28;20453;-76
2022/05/10 10:04:22;;;;;;;7.60;3.00;;;;;;;;;;5035262;28;20446;-77
2022/05/10 10:07:07;;;;;;;4.50;3.17;;;;;;;;;;5035624;28;20406;-77
2022/05/10 10:09:34;;;;;;;5.90;3.60;;;;;;;;;;5049541;28;20426;-77
2022/05/10 10:12:01;;;;;;;6.77;2.80;;;;;;;;;;5037695;28;20427;-78
2022/05/10 10:14:38;;;;;;;4.97;2.63;;;;;;;;;;5055161;28;20432;-78
2022/05/10 10:17:04;;;;;;;3.20;2.40;;;;;;;;;;5055495;28;20446;-77
2022/05/10 10:19:41;;;;;;;2.70;2.27;;;;;;;;;;5055302;28;20460;-76
2022/05/10 10:22:16;;;;;;;4.60;2.70;;;;;;;;;;5055081;28;20471;-77
2022/05/10 10:24:48;;;;;;;4.50;2.80;;;;;;;;;;5054897;28;20462;-78
2022/05/10 10:27:33;;;;;;;4.00;3.10;;;;;;;;;;5055412;28;20825;-78
2022/05/10 10:30:04;;;;;;;2.50;2.30;;;;;;;;;;5055395;28;20909;-77
2022/05/10 10:32:32;;;;;;;5.67;3.10;;;;;;;;;;5055026;28;20409;-78
2022/05/10 10:35:11;;;;;;;5.00;3.60;;;;;;;;;;5054913;28;20429;-78
2022/05/10 10:37:38;;;;;;;3.30;2.93;;;;;;;;;;5055335;28;20745;-78
2022/05/10 10:40:07;;;;;;;5.10;2.53;;;;;;;;;;5055280;28;20857;-77
2022/05/10 10:42:36;;;;;;;4.40;2.60;;;;;;;;;;5038019;28;20985;-77
2022/05/10 10:45:04;;;;;;;6.40;2.80;;;;;;;;;;5054918;28;20433;-76
2022/05/10 10:47:36;;;;;;;3.20;2.70;;;;;;;;;;5055099;28;20409;-76
2022/05/10 10:50:21;;;;;;;2.60;2.40;;;;;;;;;;5054873;28;20499;-76
2022/05/10 10:52:47;;;;;;;2.83;2.63;;;;;;;;;;5054732;28;20904;-77
2022/05/10 10:55:18;;;;;;;9.53;3.00;;;;;;;;;;5054427;28;20437;-76
2022/05/10 10:57:57;;;;;;;4.07;3.20;;;;;;;;;;5054846;28;20493;-78
2022/05/10 11:00:34;;;;;;;4.37;2.80;;;;;;;;;;5054712;28;20557;-78
2022/05/10 11:03:04;;;;;;;8.27;3.10;;;;;;;;;;5054244;28;20411;-78
2022/05/10 11:05:30;;;;;;;5.60;2.73;;;;;;;;;;5054284;28;20483;-77
2022/05/10 11:08:14;;;;;;;5.43;3.13;;;;;;;;;;5054594;28;20409;-77
2022/05/10 11:10:47;;;;;;;7.70;3.30;;;;;;;;;;5034561;28;20417;-77
2022/05/10 11:13:13;;;;;;;4.83;2.80;;;;;;;;;;5033812;28;20413;-77
2022/05/10 11:15:45;;;;;;;2.90;2.60;;;;;;;;;;5034433;28;20402;-77
2022/05/10 11:18:22;;;;;;;4.23;3.20;;;;;;;;;;5034360;28;20502;-77
2022/05/10 11:20:52;;;;;;;4.47;3.00;;;;;;;;;;5034271;28;20419;-77
2022/05/10 11:23:32;;;;;;;3.10;2.80;;;;;;;;;;5032592;28;20991;-78
2022/05/10 11:25:59;;;;;;;4.90;2.80;;;;;;;;;;5034326;28;20742;-77
2022/05/10 11:28:30;;;;;;;3.70;2.57;;;;;;;;;;5034051;28;20400;-77
2022/05/10 11:30:59;;;;;;;5.63;2.80;;;;;;;;;;5034190;28;20406;-77
2022/05/10 11:33:33;;;;;;;5.27;2.70;;;;;;;;;;5032230;28;20467;-77
2022/05/10 11:36:02;;;;;;;6.33;2.57;;;;;;;;;;5034058;28;20483;-77
2022/05/10 11:38:28;;;;;;;6.90;3.20;;;;;;;;;;5033821;28;20456;-77
2022/05/10 11:41:04;;;;;;;4.00;2.97;;;;;;;;;;5032500;28;20942;-77
2022/05/10 11:43:48;;;;;;;3.00;2.80;;;;;;;;;;5032954;28;20470;-78
2022/05/10 11:46:53;;;;;;;3.40;2.97;;;;;;;;;;5033928;28;20569;-78
2022/05/10 11:49:37;;;;;;;3.93;3.10;;;;;;;;;;4992045;28;20451;-77
2022/05/10 11:52:22;;;;;;;3.57;3.27;;;;;;;;;;4992192;28;20530;-78
2022/05/10 11:54:48;;;;;;;3.10;2.80;;;;;;;;;;5021942;28;20768;-78
2022/05/10 11:57:15;;;;;;;3.13;2.60;;;;;;;;;;5033579;28;20459;-77
2022/05/10 11:59:43;;;;;;;7.53;3.03;;;;;;;;;;5033534;28;20495;-77
2022/05/10 12:02:27;;;;;;;4.17;3.23;;;;;;;;;;5033753;28;20416;-78
2022/05/10 12:05:14;;;;;;;6.00;2.90;;;;;;;;;;5033245;28;20421;-78
2022/05/10 12:07:44;;;;;;;7.90;3.30;;;;;;;;;;5032266;28;20412;-79
2022/05/10 12:10:22;;;;;;;6.47;3.00;;;;;;;;;;5033652;28;20420;-78
2022/05/10 12:12:48;;;;;;;5.27;3.00;;;;;;;;;;5033350;28;20413;-79
2022/05/10 12:21:20;;;;;;;4.03;3.27;;;;;;;;;;5012084;28;20422;-78
2022/05/10 12:24:02;;;;;;;4.00;3.10;;;;;;;;;;5032777;28;20517;-78
2022/05/10 12:26:32;;;;;;;8.43;3.53;;;;;;;;;;5032012;28;20413;-77
2022/05/10 12:28:58;;;;;;;4.03;3.03;;;;;;;;;;5032988;28;20762;-78
2022/05/10 12:31:30;;;;;;;3.93;2.77;;;;;;;;;;5033165;28;20762;-78
2022/05/10 12:34:00;;;;;;;4.43;3.43;;;;;;;;;;5032546;28;20432;-78
2022/05/10 12:36:31;;;;;;;6.67;3.53;;;;;;;;;;5033064;28;20405;-77
2022/05/10 12:38:57;;;;;;;7.13;3.00;;;;;;;;;;5033229;28;20464;-76
2022/05/10 12:41:42;;;;;;;4.60;3.10;;;;;;;;;;5033288;28;20405;-76
2022/05/10 12:44:29;;;;;;;7.70;3.10;;;;;;;;;;5031550;28;20427;-77
2022/05/10 12:47:09;;;;;;;7.93;3.33;;;;;;;;;;5031639;28;20941;-77
2022/05/10 12:49:43;;;;;;;6.67;3.17;;;;;;;;;;5032819;28;20413;-77
2022/05/10 12:52:20;;;;;;;6.00;3.40;;;;;;;;;;5031864;28;20433;-78
2022/05/10 12:54:49;;;;;;;5.00;3.47;;;;;;;;;;5031272;28;20860;-77
2022/05/10 12:57:26;;;;;;;5.17;2.90;;;;;;;;;;5031461;28;20842;-76
2022/05/10 12:59:58;;;;;;;4.40;3.27;;;;;;;;;;5032644;28;20465;-77
2022/05/10 13:02:27;;;;;;;7.90;3.20;;;;;;;;;;5032758;28;20477;-77
2022/05/10 13:04:55;;;;;;;10.23;3.57;;;;;;;;;;5032338;28;20437;-76
2022/05/10 13:07:40;;;;;;;3.57;3.10;;;;;;;;;;5042965;28;20425;-77
2022/05/10 13:10:16;;;;;;;3.20;2.90;;;;;;;;;;5052600;28;20405;-77
2022/05/10 13:12:45;;;;;;;3.80;2.90;;;;;;;;;;5052798;28;20412;-78
2022/05/10 13:15:11;;;;;;;3.77;3.37;;;;;;;;;;5052135;28;20435;-77
2022/05/10 13:17:38;;;;;;;4.10;3.30;;;;;;;;;;5034649;28;20496;-77
2022/05/10 13:20:08;;;;;;;3.93;3.63;;;;;;;;;;5052316;28;20493;-77
2022/05/10 13:22:35;;;;;;;3.00;2.70;;;;;;;;;;5034539;28;20420;-77
2022/05/10 13:25:04;;;;;;;3.53;3.17;;;;;;;;;;5034292;28;20487;-77
2022/05/10 13:27:34;;;;;;;4.97;3.50;;;;;;;;;;5052556;28;20501;-77
2022/05/10 13:30:07;;;;;;;4.10;3.40;;;;;;;;;;5052246;28;20428;-78
2022/05/10 13:32:36;;;;;;;6.93;3.43;;;;;;;;;;5052488;28;20412;-77
2022/05/10 13:35:08;;;;;;;3.43;3.13;;;;;;;;;;5051879;28;20438;-77
2022/05/10 13:37:35;;;;;;;5.50;4.00;;;;;;;;;;5052253;28;20409;-77
2022/05/10 13:40:08;;;;;;;4.40;4.00;;;;;;;;;;5051923;28;20471;-77
2022/05/10 13:42:38;;;;;;;6.77;3.50;;;;;;;;;;5051997;28;20403;-77
2022/05/10 13:45:05;;;;;;;3.87;3.10;;;;;;;;;;5051683;28;20445;-77
2022/05/10 13:47:32;;;;;;;4.03;3.57;;;;;;;;;;5034219;28;20503;-78
2022/05/10 13:49:59;;;;;;;8.77;3.90;;;;;;;;;;5052036;28;20413;-77
2022/05/10 13:52:27;;;;;;;3.63;2.93;;;;;;;;;;5051869;28;20454;-77
2022/05/10 13:54:55;;;;;;;4.43;4.00;;;;;;;;;;5051690;28;20428;-77
2022/05/10 13:57:25;;;;;;;3.37;3.00;;;;;;;;;;5052098;28;20488;-78
2022/05/10 13:59:52;;;;;;;3.57;3.27;;;;;;;;;;5051976;28;20983;-77
2022/05/10 14:02:21;;;;;;;5.53;2.93;;;;;;;;;;5051967;28;20413;-77
2022/05/10 14:04:48;;;;;;;3.97;3.33;;;;;;;;;;5051589;28;20799;-77
2022/05/10 14:07:20;;;;;;;3.57;3.27;;;;;;;;;;5053525;28;20425;-77
2022/05/10 14:09:47;;;;;;;3.30;3.00;;;;;;;;;;5055607;28;20412;-77
2022/05/10 14:12:19;;;;;;;6.60;3.37;;;;;;;;;;5055673;28;20502;-77
2022/05/10 14:14:45;;;;;;;6.43;3.20;;;;;;;;;;5054938;28;20427;-77
2022/05/10 14:17:12;;;;;;;7.70;3.57;;;;;;;;;;5055706;28;20405;-77
2022/05/10 14:19:40;;;;;;;4.50;3.40;;;;;;;;;;5037418;28;20808;-77
2022/05/10 14:22:08;;;;;;;4.50;3.00;;;;;;;;;;5055385;28;20407;-77
2022/05/10 14:24:35;;;;;;;3.37;3.03;;;;;;;;;;5054350;28;20768;-77
2022/05/10 14:27:20;;;;;;;6.53;3.00;;;;;;;;;;5048189;28;21070;-78
2022/05/10 14:29:49;;;;;;;5.03;3.10;;;;;;;;;;5054569;28;20487;-77
2022/05/10 14:32:21;;;;;;;4.83;3.10;;;;;;;;;;5055261;28;20411;-77
2022/05/10 14:34:54;;;;;;;3.37;2.70;;;;;;;;;;5036913;28;20526;-77
2022/05/10 14:37:33;;;;;;;4.00;2.90;;;;;;;;;;5055367;28;20414;-78
2022/05/10 14:40:25;;;;;;;9.87;3.10;;;;;;;;;;5055378;28;20548;-77
2022/05/10 14:43:04;;;;;;;4.80;2.97;;;;;;;;;;5054845;28;20405;-77
2022/05/10 14:45:34;;;;;;;5.00;3.17;;;;;;;;;;5054952;28;20938;-78
2022/05/10 14:48:00;;;;;;;7.97;3.73;;;;;;;;;;5037039;28;20432;-77
2022/05/10 14:50:41;;;;;;;3.70;2.87;;;;;;;;;;5054651;28;20449;-77
2022/05/10 14:53:20;;;;;;;5.70;3.10;;;;;;;;;;5054489;28;20496;-77
2022/05/10 14:55:47;;;;;;;3.63;3.33;;;;;;;;;;5054860;28;20420;-77
2022/05/10 14:58:15;;;;;;;11.63;4.40;;;;;;;;;;5054769;28;20800;-77
2022/05/10 15:00:45;;;;;;;6.23;3.10;;;;;;;;;;5054636;28;20467;-76
2022/05/10 15:03:16;;;;;;;4.03;3.23;;;;;;;;;;5054087;28;20411;-76
2022/05/10 15:05:43;;;;;;;5.70;3.40;;;;;;;;;;5054391;28;20430;-76